Time;durP1;ratioP1;P1;durP2;ratioP2;P2;SDS_P1;SDS_P2;PMS_P1;PMS_P2;Temp;Humidity;BMP_temperature;BMP_pressure;BME280_temperature;BME280_humidity;BME280_pressure;Samples;Min_cycle;Max_cycle;Signal;HPM_P1;HPM_P2
2022/06/06 00:01:10;;;;;;;32.77;22.67;;;-40.00;99.90;;;;;;5136620;27;20172;-73
2022/06/06 00:03:35;;;;;;;28.90;21.70;;;-40.00;99.90;;;;;;5136451;27;20185;-75
2022/06/06 00:06:01;;;;;;;30.70;22.67;;;-40.00;99.90;;;;;;5136631;28;20185;-78
2022/06/06 00:08:27;;;;;;;33.53;23.53;;;-40.00;99.90;;;;;;5136339;28;20329;-74
2022/06/06 00:10:56;;;;;;;32.60;24.83;;;-40.00;99.90;;;;;;5136225;28;20188;-75
2022/06/06 00:13:21;;;;;;;36.23;25.47;;;-40.00;99.90;;;;;;5136223;27;20298;-74
2022/06/06 00:15:47;;;;;;;33.40;23.83;;;-40.00;99.90;;;;;;5137273;27;20260;-69
2022/06/06 00:18:13;;;;;;;32.03;24.03;;;-40.00;99.90;;;;;;5140495;27;20170;-77
2022/06/06 00:20:39;;;;;;;31.90;25.17;;;-40.00;99.90;;;;;;5140305;27;20173;-72
2022/06/06 00:23:05;;;;;;;33.90;25.77;;;-40.00;99.90;;;;;;5140442;27;20277;-72
2022/06/06 00:25:30;;;;;;;32.63;23.23;;;-40.00;99.90;;;;;;5140077;27;20219;-76
2022/06/06 00:27:56;;;;;;;32.03;21.97;;;-40.00;99.90;;;;;;5140207;27;20480;-66
2022/06/06 00:30:22;;;;;;;43.73;23.43;;;-40.00;99.90;;;;;;5140302;27;20165;-76
2022/06/06 00:35:32;;;;;;;31.73;22.80;;;-40.00;99.90;;;;;;5140208;27;20607;-78
2022/06/06 00:37:59;;;;;;;35.90;23.20;;;-40.00;99.90;;;;;;5139717;27;20182;-78
2022/06/06 00:40:26;;;;;;;36.87;24.63;;;-40.00;99.90;;;;;;5140147;27;20631;-69
2022/06/06 00:42:52;;;;;;;38.07;24.47;;;-40.00;99.90;;;;;;5139985;27;20173;-66
2022/06/06 00:45:26;;;;;;;34.63;23.87;;;-40.00;99.90;;;;;;5139998;27;20173;-66
2022/06/06 00:48:11;;;;;;;38.07;25.63;;;-40.00;99.90;;;;;;5139818;27;20209;-78
2022/06/06 00:51:04;;;;;;;33.17;25.73;;;-40.00;99.90;;;;;;5138825;27;20173;-74
2022/06/06 00:53:32;;;;;;;32.00;23.23;;;-40.00;99.90;;;;;;5139377;27;20166;-78
2022/06/06 00:56:19;;;;;;;37.77;26.37;;;-40.00;99.90;;;;;;5138742;27;20216;-70
2022/06/06 00:58:48;;;;;;;37.87;24.97;;;-40.00;99.90;;;;;;5139640;27;20218;-76
2022/06/06 01:01:14;;;;;;;35.70;25.20;;;-40.00;99.90;;;;;;5139730;27;20485;-78
2022/06/06 01:03:40;;;;;;;34.30;25.73;;;-40.00;99.90;;;;;;5138511;27;20444;-77
2022/06/06 01:06:10;;;;;;;31.73;24.20;;;-40.00;99.90;;;;;;5140074;27;20204;-72
2022/06/06 01:08:38;;;;;;;32.13;22.90;;;-40.00;99.90;;;;;;5139224;27;20211;-66
2022/06/06 01:11:04;;;;;;;30.07;23.63;;;-40.00;99.90;;;;;;5139555;27;20248;-77
2022/06/06 01:13:33;;;;;;;32.37;23.60;;;-40.00;99.90;;;;;;5139258;27;20197;-75
2022/06/06 01:16:24;;;;;;;37.27;24.27;;;-40.00;99.90;;;;;;5139535;27;20172;-77
2022/06/06 01:19:14;;;;;;;37.20;23.50;;;-40.00;99.90;;;;;;5139583;27;20166;-69
2022/06/06 01:22:01;;;;;;;33.50;23.37;;;-40.00;99.90;;;;;;5139046;27;20188;-74
2022/06/06 01:24:41;;;;;;;32.23;23.37;;;-40.00;99.90;;;;;;5139096;27;20633;-73
2022/06/06 01:27:34;;;;;;;30.87;21.90;;;-40.00;99.90;;;;;;5138316;27;20193;-72
2022/06/06 01:30:07;;;;;;;32.37;22.97;;;-40.00;99.90;;;;;;5139005;27;20196;-73
2022/06/06 01:32:43;;;;;;;32.53;21.73;;;-40.00;99.90;;;;;;5139118;27;20169;-75
2022/06/06 01:35:11;;;;;;;29.20;23.07;;;-40.00;99.90;;;;;;5138934;27;20192;-76
2022/06/06 01:37:40;;;;;;;27.70;21.17;;;-40.00;99.90;;;;;;5138670;27;20559;-77
2022/06/06 01:40:11;;;;;;;28.57;21.07;;;-40.00;99.90;;;;;;5138855;27;20165;-78
2022/06/06 01:42:56;;;;;;;29.03;20.40;;;-40.00;99.90;;;;;;5138766;27;20615;-78
2022/06/06 01:45:42;;;;;;;26.87;20.40;;;-40.00;99.90;;;;;;5137626;27;20200;-78
2022/06/06 01:48:16;;;;;;;25.00;18.70;;;-40.00;99.90;;;;;;5138780;27;20189;-74
2022/06/06 01:50:43;;;;;;;26.27;19.77;;;-40.00;99.90;;;;;;5138303;27;20196;-77
2022/06/06 01:53:14;;;;;;;28.13;17.90;;;-40.00;99.90;;;;;;5138675;27;20168;-75
2022/06/06 01:55:45;;;;;;;23.23;18.70;;;-40.00;99.90;;;;;;5138538;27;20244;-79
2022/06/06 01:58:20;;;;;;;24.50;16.23;;;-40.00;99.90;;;;;;5138487;27;20180;-74
2022/06/06 02:00:46;;;;;;;22.67;18.23;;;-40.00;99.90;;;;;;5138425;27;20176;-75
2022/06/06 02:03:13;;;;;;;23.17;17.70;;;-40.00;99.90;;;;;;5138280;27;20267;-77
2022/06/06 02:05:39;;;;;;;22.10;17.67;;;-40.00;99.90;;;;;;5137829;27;20498;-75
2022/06/06 02:08:06;;;;;;;27.27;18.77;;;-40.00;99.90;;;;;;5138321;27;20189;-77
2022/06/06 02:10:31;;;;;;;21.80;17.47;;;-40.00;99.90;;;;;;5138173;27;20631;-76
2022/06/06 02:12:57;;;;;;;23.50;16.43;;;-40.00;99.90;;;;;;5138318;27;20244;-75
2022/06/06 02:15:24;;;;;;;22.97;17.57;;;-40.00;99.90;;;;;;5136954;27;20201;-77
2022/06/06 02:17:50;;;;;;;22.30;17.10;;;-40.00;99.90;;;;;;5138182;27;20256;-78
2022/06/06 02:20:19;;;;;;;23.13;15.67;;;-40.00;99.90;;;;;;5137674;27;20165;-79
2022/06/06 02:22:44;;;;;;;24.83;16.17;;;-40.00;99.90;;;;;;5138111;27;20177;-76
2022/06/06 02:25:12;;;;;;;28.07;18.20;;;-40.00;99.90;;;;;;5137827;27;20192;-77
2022/06/06 02:27:38;;;;;;;19.20;15.17;;;-40.00;99.90;;;;;;5137834;27;20192;-74
2022/06/06 02:30:06;;;;;;;24.27;15.20;;;-40.00;99.90;;;;;;5137746;27;20277;-77
2022/06/06 02:32:32;;;;;;;25.77;15.20;;;-40.00;99.90;;;;;;5136691;27;20176;-74
2022/06/06 02:34:58;;;;;;;17.83;14.30;;;-40.00;99.90;;;;;;5137119;27;20215;-77
2022/06/06 02:37:24;;;;;;;22.37;15.50;;;-40.00;99.90;;;;;;5137688;27;20260;-78
2022/06/06 02:39:50;;;;;;;21.50;15.67;;;-40.00;99.90;;;;;;5137445;27;20224;-79
2022/06/06 02:42:16;;;;;;;23.60;15.93;;;-40.00;99.90;;;;;;5137565;27;20177;-72
2022/06/06 02:44:42;;;;;;;18.53;14.83;;;-40.00;99.90;;;;;;5137484;27;20189;-80
2022/06/06 02:47:08;;;;;;;20.27;15.17;;;-40.00;99.90;;;;;;5137506;27;20176;-75
2022/06/06 02:49:34;;;;;;;20.57;14.83;;;-40.00;99.90;;;;;;5137313;27;20161;-75
2022/06/06 02:52:04;;;;;;;17.10;14.47;;;-40.00;99.90;;;;;;5137351;27;20629;-76
2022/06/06 02:54:30;;;;;;;21.27;13.67;;;-40.00;99.90;;;;;;5137334;27;20166;-73
2022/06/06 02:56:58;;;;;;;27.27;16.27;;;-40.00;99.90;;;;;;5137247;27;20157;-79
2022/06/06 02:59:25;;;;;;;22.80;14.87;;;-40.00;99.90;;;;;;5137297;27;20180;-78
2022/06/06 03:01:51;;;;;;;15.37;12.20;;;-40.00;99.90;;;;;;5137115;27;20567;-78
2022/06/06 03:04:18;;;;;;;26.07;13.80;;;-40.00;99.90;;;;;;5136857;27;20477;-77
2022/06/06 03:07:11;;;;;;;19.27;14.37;;;-40.00;99.90;;;;;;5135995;27;20578;-78
2022/06/06 03:09:49;;;;;;;20.80;13.27;;;-40.00;99.90;;;;;;5137157;27;20583;-74
2022/06/06 03:12:48;;;;;;;18.03;11.67;;;-40.00;99.90;;;;;;5136977;27;20178;-78
2022/06/06 03:15:17;;;;;;;14.83;12.13;;;-40.00;99.90;;;;;;5128139;27;20203;-69
2022/06/06 03:21:25;;;;;;;17.13;10.73;;;-40.00;99.90;;;;;;5136932;27;20265;-78
2022/06/06 03:24:41;;;;;;;23.33;11.80;;;-40.00;99.90;;;;;;5136735;27;20486;-69
2022/06/06 03:27:28;;;;;;;13.07;9.60;;;-40.00;99.90;;;;;;5126954;27;20755;-71
2022/06/06 03:30:03;;;;;;;11.20;9.37;;;-40.00;99.90;;;;;;5136883;27;20233;-68
2022/06/06 03:32:37;;;;;;;10.87;8.47;;;-40.00;99.90;;;;;;5136440;27;20624;-69
2022/06/06 03:35:19;;;;;;;9.97;8.40;;;-40.00;99.90;;;;;;5136548;27;20637;-70
2022/06/06 03:37:58;;;;;;;10.70;8.53;;;-40.00;99.90;;;;;;5135566;27;20181;-75
2022/06/06 03:40:44;;;;;;;7.53;6.63;;;-40.00;99.90;;;;;;5136674;27;20177;-78
2022/06/06 03:43:34;;;;;;;10.63;7.80;;;-40.00;99.90;;;;;;5136561;27;20629;-69
2022/06/06 03:46:14;;;;;;;9.57;7.60;;;-40.00;99.90;;;;;;5136745;27;20164;-72
2022/06/06 03:48:52;;;;;;;11.00;8.03;;;-40.00;99.90;;;;;;5136444;28;20192;-77
2022/06/06 03:51:28;;;;;;;9.27;7.20;;;-40.00;99.90;;;;;;5136089;27;20165;-78
2022/06/06 03:54:31;;;;;;;9.30;6.13;;;-40.00;99.90;;;;;;5136689;27;20165;-74
2022/06/06 03:57:22;;;;;;;12.83;6.03;;;-40.00;99.90;;;;;;5136540;28;20210;-76
2022/06/06 03:59:53;;;;;;;8.23;6.13;;;-40.00;99.90;;;;;;5136707;28;20157;-72
2022/06/06 04:02:23;;;;;;;7.07;5.87;;;-40.00;99.90;;;;;;5136187;27;20217;-77
2022/06/06 04:04:50;;;;;;;6.70;6.10;;;-40.00;99.90;;;;;;5136437;27;20173;-78
2022/06/06 04:07:16;;;;;;;6.23;5.20;;;-40.00;99.90;;;;;;5136370;28;20224;-71
2022/06/06 04:09:42;;;;;;;7.00;6.13;;;-40.00;99.90;;;;;;5136281;27;20161;-74
2022/06/06 04:12:22;;;;;;;8.10;5.90;;;-40.00;99.90;;;;;;5136426;28;20201;-78
2022/06/06 04:14:58;;;;;;;5.17;4.73;;;-40.00;99.90;;;;;;5136203;28;20190;-76
2022/06/06 04:17:27;;;;;;;12.93;5.87;;;-40.00;99.90;;;;;;5136171;28;20169;-67
2022/06/06 04:20:07;;;;;;;6.77;5.43;;;-40.00;99.90;;;;;;5136387;28;20165;-74
2022/06/06 04:22:51;;;;;;;10.27;5.50;;;-40.00;99.90;;;;;;5136241;27;20252;-67
2022/06/06 04:25:27;;;;;;;10.63;4.33;;;-40.00;99.90;;;;;;5135403;28;20180;-68
2022/06/06 04:28:06;;;;;;;9.10;5.00;;;-40.00;99.90;;;;;;5136262;28;20177;-65
2022/06/06 04:30:53;;;;;;;4.83;4.37;;;-40.00;99.90;;;;;;5135870;28;20181;-67
2022/06/06 04:33:23;;;;;;;3.57;3.27;;;-40.00;99.90;;;;;;5136139;28;20249;-71
2022/06/06 04:36:21;;;;;;;4.33;4.07;;;-40.00;99.90;;;;;;5134884;28;20205;-73
2022/06/06 04:38:59;;;;;;;4.83;4.40;;;-40.00;99.90;;;;;;5135844;28;20169;-72
2022/06/06 04:41:42;;;;;;;6.63;4.10;;;-40.00;99.90;;;;;;5136301;28;20568;-76
2022/06/06 04:44:20;;;;;;;4.80;3.87;;;-40.00;99.90;;;;;;5136247;28;20619;-70
2022/06/06 04:47:13;;;;;;;3.90;3.33;;;-40.00;99.90;;;;;;5136137;27;20242;-76
2022/06/06 04:49:39;;;;;;;4.60;3.30;;;-40.00;99.90;;;;;;5135922;28;20173;-77
2022/06/06 04:52:06;;;;;;;4.90;3.43;;;-40.00;99.90;;;;;;5136014;28;20560;-73
2022/06/06 04:54:33;;;;;;;4.73;3.10;;;-40.00;99.90;;;;;;5135840;27;20165;-73
2022/06/06 04:57:01;;;;;;;4.00;3.27;;;-40.00;99.90;;;;;;5135969;28;20180;-76
2022/06/06 04:59:30;;;;;;;3.73;3.00;;;-40.00;99.90;;;;;;5135567;27;20162;-73
2022/06/06 05:01:58;;;;;;;4.30;3.17;;;-40.00;99.90;;;;;;5135772;27;20162;-72
2022/06/06 05:04:24;;;;;;;3.43;3.23;;;-40.00;99.90;;;;;;5138803;27;20161;-78
2022/06/06 05:07:06;;;;;;;3.33;3.03;;;-40.00;99.90;;;;;;5139510;27;20225;-70
2022/06/06 05:09:44;;;;;;;4.00;3.47;;;-40.00;99.90;;;;;;5140858;27;20185;-69
2022/06/06 05:12:38;;;;;;;3.47;2.57;;;-40.00;99.90;;;;;;5139426;27;20222;-67
2022/06/06 05:15:16;;;;;;;5.40;2.83;;;-40.00;99.90;;;;;;5138884;27;20146;-76
2022/06/06 05:18:00;;;;;;;5.67;4.10;;;-40.00;99.90;;;;;;5118724;28;20614;-75
2022/06/06 05:20:29;;;;;;;3.40;3.13;;;-40.00;99.90;;;;;;5118663;28;20578;-74
2022/06/06 05:23:13;;;;;;;3.80;3.50;;;-40.00;99.90;;;;;;5118843;28;20178;-77
2022/06/06 05:26:17;;;;;;;5.17;4.20;;;-40.00;99.90;;;;;;5118238;28;20181;-77
2022/06/06 05:28:58;;;;;;;3.30;3.10;;;-40.00;99.90;;;;;;5105297;28;20221;-71
2022/06/06 05:31:36;;;;;;;3.73;3.50;;;-40.00;99.90;;;;;;5118523;28;20193;-73
2022/06/06 05:34:26;;;;;;;4.43;3.90;;;-40.00;99.90;;;;;;5118314;28;20166;-74
2022/06/06 05:37:29;;;;;;;4.17;3.73;;;-40.00;99.90;;;;;;5149848;27;20203;-65
2022/06/06 05:40:18;;;;;;;5.10;3.13;;;-40.00;99.90;;;;;;5129088;27;20233;-72
2022/06/06 05:42:50;;;;;;;4.10;3.47;;;-40.00;99.90;;;;;;5138402;27;20158;-68
2022/06/06 05:45:21;;;;;;;5.70;3.03;;;-40.00;99.90;;;;;;5139216;27;20218;-66
2022/06/06 05:48:11;;;;;;;4.67;3.53;;;-40.00;99.90;;;;;;5137462;27;20221;-71
2022/06/06 05:51:09;;;;;;;3.23;2.93;;;-40.00;99.90;;;;;;5138446;27;20162;-75
2022/06/06 05:53:53;;;;;;;3.50;3.13;;;-40.00;99.90;;;;;;5137451;27;20188;-71
2022/06/06 05:56:22;;;;;;;3.47;3.27;;;-40.00;99.90;;;;;;5138475;27;20157;-78
2022/06/06 05:59:36;;;;;;;3.50;3.23;;;-40.00;99.90;;;;;;5138209;27;20172;-75
2022/06/06 06:02:17;;;;;;;3.60;3.40;;;-40.00;99.90;;;;;;5100633;27;20183;-78
2022/06/06 06:05:16;;;;;;;4.13;3.10;;;-40.00;99.90;;;;;;5138184;27;20188;-75
2022/06/06 06:08:00;;;;;;;3.83;2.97;;;-40.00;99.90;;;;;;5137137;27;20208;-72
2022/06/06 06:10:47;;;;;;;5.00;3.63;;;-40.00;99.90;;;;;;5138122;27;20488;-75
2022/06/06 06:13:41;;;;;;;3.20;3.00;;;-40.00;99.90;;;;;;5137643;27;20164;-73
2022/06/06 06:16:10;;;;;;;6.27;3.33;;;-40.00;99.90;;;;;;5138187;27;20572;-81
2022/06/06 06:18:59;;;;;;;3.57;3.27;;;-40.00;99.90;;;;;;5138048;27;20169;-68
2022/06/06 06:21:29;;;;;;;4.53;3.17;;;-40.00;99.90;;;;;;5137887;27;20167;-73
2022/06/06 06:24:09;;;;;;;3.37;2.50;;;-40.00;99.90;;;;;;5137917;27;20208;-74
2022/06/06 06:26:36;;;;;;;2.80;2.60;;;-40.00;99.90;;;;;;5137587;27;20161;-73
2022/06/06 06:29:04;;;;;;;3.13;2.93;;;-40.00;99.90;;;;;;5137809;27;20216;-67
2022/06/06 06:31:51;;;;;;;3.23;2.37;;;-40.00;99.90;;;;;;5137393;27;20167;-73
2022/06/06 06:34:23;;;;;;;3.50;2.63;;;-40.00;99.90;;;;;;5136586;27;20178;-71
2022/06/06 06:37:07;;;;;;;5.23;2.80;;;-40.00;99.90;;;;;;5137414;27;20181;-76
2022/06/06 06:39:57;;;;;;;3.10;2.33;;;-40.00;99.90;;;;;;5137540;27;20564;-74
2022/06/06 06:42:23;;;;;;;12.33;3.83;;;-40.00;99.90;;;;;;5136218;27;20546;-78
2022/06/06 06:44:59;;;;;;;2.93;2.57;;;-40.00;99.90;;;;;;5090752;27;20264;-73
2022/06/06 06:47:35;;;;;;;6.63;3.30;;;-40.00;99.90;;;;;;5126256;27;20351;-75
2022/06/06 06:50:21;;;;;;;2.77;2.57;;;-40.00;99.90;;;;;;5131748;27;20558;-78
2022/06/06 06:53:24;;;;;;;6.30;3.20;;;-40.00;99.90;;;;;;5134009;27;20169;-69
2022/06/06 06:56:05;;;;;;;5.47;3.10;;;-40.00;99.90;;;;;;5133226;27;20185;-67
2022/06/06 06:58:40;;;;;;;3.97;3.53;;;-40.00;99.90;;;;;;5132804;27;20165;-70
2022/06/06 07:01:38;;;;;;;4.97;3.63;;;-40.00;99.90;;;;;;5131521;27;20203;-73
2022/06/06 07:10:07;;;;;;;6.50;4.10;;;-40.00;99.90;;;;;;5134154;27;20249;-70
2022/06/06 07:12:41;;;;;;;4.70;4.33;;;-40.00;99.90;;;;;;5130652;27;20173;-70
2022/06/06 07:15:36;;;;;;;4.23;3.87;;;-40.00;99.90;;;;;;5133573;27;20172;-68
2022/06/06 07:18:04;;;;;;;6.50;4.57;;;-40.00;99.90;;;;;;5133169;27;20199;-67
2022/06/06 07:20:33;;;;;;;4.90;4.50;;;-40.00;99.90;;;;;;5133284;27;20177;-69
2022/06/06 07:23:03;;;;;;;4.77;4.30;;;-40.00;99.90;;;;;;5132115;27;20533;-85
2022/06/06 07:25:50;;;;;;;4.97;3.70;;;-40.00;99.90;;;;;;5129377;27;20487;-72
2022/06/06 07:28:19;;;;;;;4.97;4.43;;;-40.00;99.90;;;;;;5134452;27;20279;-65
2022/06/06 07:30:48;;;;;;;6.63;3.80;;;-40.00;99.90;;;;;;5136731;27;20576;-71
2022/06/06 07:33:53;;;;;;;4.47;4.07;;;-40.00;99.90;;;;;;5136776;27;20161;-77
2022/06/06 07:36:56;;;;;;;3.77;3.00;;;-40.00;99.90;;;;;;5136696;27;20189;-67
2022/06/06 07:39:45;;;;;;;4.33;3.03;;;-40.00;99.90;;;;;;5135370;27;20598;-69
2022/06/06 07:42:40;;;;;;;2.80;2.40;;;-40.00;99.90;;;;;;5136657;27;20565;-67
2022/06/06 07:45:17;;;;;;;2.00;1.90;;;-40.00;99.90;;;;;;5121446;27;20181;-68
2022/06/06 07:48:20;;;;;;;3.77;2.13;;;-40.00;99.90;;;;;;5136555;27;20205;-73
2022/06/06 07:51:07;;;;;;;2.23;2.13;;;-40.00;99.90;;;;;;5135217;27;20200;-70
2022/06/06 07:53:33;;;;;;;3.10;1.93;;;-40.00;99.90;;;;;;5135812;27;20161;-68
2022/06/06 07:56:12;;;;;;;4.00;2.70;;;-40.00;99.90;;;;;;5136291;27;20203;-66
2022/06/06 07:58:58;;;;;;;6.43;1.87;;;-40.00;99.90;;;;;;5135560;28;20161;-75
2022/06/06 08:01:40;;;;;;;2.13;2.03;;;-40.00;99.90;;;;;;5135136;28;20215;-69
2022/06/06 08:04:26;;;;;;;1.50;1.40;;;-40.00;99.90;;;;;;5135259;27;20177;-70
2022/06/06 08:07:35;;;;;;;1.93;1.67;;;-40.00;99.90;;;;;;5131810;28;20483;-69
2022/06/06 08:10:18;;;;;;;2.70;1.63;;;-40.00;99.90;;;;;;5134486;28;20193;-71
2022/06/06 08:13:02;;;;;;;1.50;1.40;;;-40.00;99.90;;;;;;5134239;28;20177;-72
2022/06/06 08:16:14;;;;;;;2.13;2.03;;;-40.00;99.90;;;;;;5135008;28;20311;-72
2022/06/06 08:19:02;;;;;;;1.70;1.60;;;-40.00;99.90;;;;;;5136135;27;20470;-73
2022/06/06 08:21:40;;;;;;;2.17;2.07;;;-40.00;99.90;;;;;;5136278;27;20170;-72
2022/06/06 08:24:12;;;;;;;2.17;1.67;;;-40.00;99.90;;;;;;5136235;27;20187;-72
2022/06/06 08:26:41;;;;;;;3.03;1.53;;;-40.00;99.90;;;;;;5136230;27;20181;-68
2022/06/06 08:29:09;;;;;;;3.43;2.53;;;-40.00;99.90;;;;;;5136236;27;20185;-70
2022/06/06 08:31:35;;;;;;;1.93;1.80;;;-40.00;99.90;;;;;;5135953;27;20167;-67
2022/06/06 08:34:01;;;;;;;2.30;1.70;;;-40.00;99.90;;;;;;5135287;27;20169;-67
2022/06/06 08:36:30;;;;;;;2.03;1.83;;;-40.00;99.90;;;;;;5135019;27;20464;-70
2022/06/06 08:39:28;;;;;;;2.70;1.70;;;-40.00;99.90;;;;;;5140085;27;20201;-68
2022/06/06 08:41:56;;;;;;;2.20;2.10;;;-40.00;99.90;;;;;;5138563;27;20238;-71
2022/06/06 08:44:26;;;;;;;6.87;2.30;;;-40.00;99.90;;;;;;5139512;27;20161;-69
2022/06/06 08:47:22;;;;;;;1.50;1.40;;;-40.00;99.90;;;;;;5139424;27;20169;-69
2022/06/06 08:53:24;;;;;;;1.17;1.17;;;-40.00;99.60;;;;;;5139623;27;20531;-66
2022/06/06 08:55:59;;;;;;;1.70;1.30;;;-40.00;99.90;;;;;;5137942;27;20200;-68
2022/06/06 08:58:46;;;;;;;1.70;1.60;;;-40.00;98.80;;;;;;5138504;27;20590;-69
2022/06/06 09:01:29;;;;;;;1.67;1.57;;;-40.00;96.90;;;;;;5139255;27;20324;-72
2022/06/06 09:04:26;;;;;;;2.53;0.90;;;-40.00;98.30;;;;;;5139567;27;20219;-72
2022/06/06 09:07:27;;;;;;;1.53;1.30;;;-40.00;98.20;;;;;;5139455;27;20197;-71
2022/06/06 09:10:15;;;;;;;0.77;0.77;;;-40.00;96.30;;;;;;5138823;27;20184;-70
2022/06/06 09:13:18;;;;;;;1.30;1.20;;;-40.00;96.50;;;;;;5137752;27;20208;-78
2022/06/06 09:16:10;;;;;;;4.53;1.20;;;-40.00;97.00;;;;;;5138307;27;20200;-69
2022/06/06 09:18:58;;;;;;;3.40;1.37;;;-40.00;96.50;;;;;;5139326;27;20162;-66
2022/06/06 09:21:55;;;;;;;2.07;1.80;;;-40.00;97.80;;;;;;5138292;27;20218;-66
2022/06/06 09:25:05;;;;;;;1.37;1.23;;;-40.00;96.80;;;;;;5138676;27;20153;-69
2022/06/06 09:27:56;;;;;;;1.67;1.20;;;-40.00;95.10;;;;;;5139306;27;20186;-67
2022/06/06 09:30:47;;;;;;;1.00;0.90;;;-40.00;95.30;;;;;;5138065;27;20186;-70
2022/06/06 09:33:34;;;;;;;1.37;1.20;;;-40.00;94.00;;;;;;5138813;27;20580;-68
2022/06/06 09:36:56;;;;;;;2.97;1.10;;;-40.00;92.90;;;;;;5138280;27;20572;-67
2022/06/06 09:39:30;;;;;;;3.30;1.47;;;-40.00;94.10;;;;;;5115792;28;20208;-73
2022/06/06 09:42:03;;;;;;;1.47;1.37;;;-40.00;94.80;;;;;;5113178;28;20181;-71
2022/06/06 09:44:43;;;;;;;2.67;1.20;;;-40.00;95.40;;;;;;5124238;27;20209;-67
2022/06/06 09:47:42;;;;;;;1.40;1.30;;;-40.00;95.80;;;;;;5134318;27;20173;-71
2022/06/06 09:50:22;;;;;;;1.40;1.30;;;-40.00;96.10;;;;;;5136108;27;20165;-67
2022/06/06 09:53:26;;;;;;;2.17;1.17;;;-40.00;95.20;;;;;;5127189;27;20169;-69
2022/06/06 09:59:04;;;;;;;3.17;1.10;;;-40.00;94.40;;;;;;5137611;27;20283;-67
2022/06/06 10:01:47;;;;;;;3.43;1.10;;;-40.00;91.60;;;;;;5136812;27;20172;-68
2022/06/06 10:04:35;;;;;;;1.63;1.53;;;-40.00;91.70;;;;;;5136927;27;20477;-74
2022/06/06 10:07:19;;;;;;;3.30;1.10;;;-40.00;92.00;;;;;;5137107;27;20181;-66
2022/06/06 10:10:16;;;;;;;1.00;1.00;;;-40.00;91.80;;;;;;5133115;27;20209;-65
2022/06/06 10:12:54;;;;;;;1.20;1.10;;;-40.00;92.00;;;;;;5137167;27;20577;-69
2022/06/06 10:15:30;;;;;;;5.20;1.90;;;-40.00;94.40;;;;;;5136831;27;20505;-67
2022/06/06 10:18:33;;;;;;;2.60;1.53;;;-40.00;95.40;;;;;;5136900;27;20177;-70
2022/06/06 10:20:59;;;;;;;2.70;1.33;;;-40.00;95.70;;;;;;5136543;27;20196;-72
2022/06/06 10:23:48;;;;;;;10.23;6.73;;;-40.00;94.20;;;;;;5137033;27;20568;-67
2022/06/06 10:26:33;;;;;;;2.43;2.23;;;-40.00;94.20;;;;;;5135805;27;20189;-66
2022/06/06 10:32:38;;;;;;;6.20;2.70;;;-40.00;91.00;;;;;;5137634;27;20195;-69
2022/06/06 10:35:32;;;;;;;2.97;1.63;;;-40.00;91.90;;;;;;5137873;27;20165;-67
2022/06/06 10:38:28;;;;;;;3.53;1.93;;;-40.00;92.50;;;;;;5138426;27;20169;-66
2022/06/06 10:41:26;;;;;;;3.60;2.03;;;-40.00;92.10;;;;;;5137497;27;20556;-70
2022/06/06 10:44:01;;;;;;;0.90;0.90;;;-40.00;91.80;;;;;;5114975;28;20186;-70
2022/06/06 10:46:40;;;;;;;1.03;0.80;;;-40.00;91.50;;;;;;5117271;28;20217;-69
2022/06/06 10:49:25;;;;;;;1.50;1.20;;;-40.00;92.70;;;;;;5114504;28;20202;-73
2022/06/06 10:52:09;;;;;;;2.20;1.07;;;-40.00;92.80;;;;;;5115029;28;20728;-74
2022/06/06 10:55:16;;;;;;;1.33;0.80;;;-40.00;95.10;;;;;;5115888;28;20162;-72
2022/06/06 10:57:59;;;;;;;1.60;0.83;;;-40.00;94.60;;;;;;5073736;28;20177;-71
2022/06/06 11:00:40;;;;;;;1.23;0.90;;;-40.00;95.40;;;;;;5124090;27;20216;-71
2022/06/06 11:03:12;;;;;;;0.80;0.80;;;-40.00;94.80;;;;;;5137414;27;20494;-71
2022/06/06 11:06:17;;;;;;;1.83;1.30;;;-40.00;94.80;;;;;;5125983;27;20193;-70
2022/06/06 11:09:10;;;;;;;1.70;1.40;;;-40.00;94.00;;;;;;5111423;27;20224;-70
2022/06/06 11:11:42;;;;;;;1.00;0.90;;;-40.00;94.50;;;;;;5134667;27;20193;-73
2022/06/06 11:14:28;;;;;;;2.00;1.50;;;-40.00;92.50;;;;;;5135971;27;20184;-71
2022/06/06 11:17:05;;;;;;;1.00;0.93;;;-40.00;92.20;;;;;;5133869;27;20202;-76
2022/06/06 11:20:05;;;;;;;1.23;1.10;;;-40.00;90.70;;;;;;5136361;27;20165;-69
2022/06/06 11:22:43;;;;;;;2.40;1.03;;;-40.00;84.40;;;;;;5124808;27;20161;-69
2022/06/06 11:25:16;;;;;;;0.97;0.97;;;-40.00;87.30;;;;;;5134695;27;20204;-68
2022/06/06 11:28:03;;;;;;;0.90;0.90;;;-40.00;86.00;;;;;;5135949;27;20276;-69
2022/06/06 11:30:49;;;;;;;2.23;1.60;;;-40.00;82.60;;;;;;5135710;27;20174;-66
2022/06/06 11:33:15;;;;;;;0.80;0.80;;;-40.00;82.70;;;;;;5124003;27;20215;-69
2022/06/06 11:36:22;;;;;;;1.10;0.93;;;-40.00;81.00;;;;;;5134457;27;20189;-75
2022/06/06 11:39:12;;;;;;;1.37;0.80;;;-40.00;84.20;;;;;;5132609;27;20226;-77
2022/06/06 11:41:57;;;;;;;1.77;1.57;;;-40.00;85.40;;;;;;5134125;27;20604;-84
2022/06/06 11:44:56;;;;;;;4.83;1.33;;;-40.00;88.30;;;;;;5132714;27;20188;-72
2022/06/06 11:47:40;;;;;;;2.03;1.47;;;-40.00;89.20;;;;;;5134094;27;20184;-71
2022/06/06 11:50:15;;;;;;;3.30;1.10;;;-40.00;89.40;;;;;;5131837;27;20173;-70
2022/06/06 11:53:02;;;;;;;1.07;1.00;;;-40.00;89.30;;;;;;5131790;28;20255;-70
2022/06/06 11:55:50;;;;;;;1.60;1.00;;;-40.00;90.60;;;;;;5131443;28;20382;-68
2022/06/06 11:58:47;;;;;;;1.60;1.10;;;-40.00;89.10;;;;;;5134163;27;20580;-70
2022/06/06 12:01:25;;;;;;;1.93;1.10;;;-40.00;88.80;;;;;;5132236;28;20254;-68
2022/06/06 12:04:00;;;;;;;1.07;0.90;;;-40.00;86.90;;;;;;5132956;28;20177;-79
2022/06/06 12:06:51;;;;;;;1.10;0.90;;;-40.00;89.10;;;;;;5133647;27;20177;-70
2022/06/06 12:09:25;;;;;;;2.13;1.13;;;-40.00;90.10;;;;;;5132412;28;20193;-73
2022/06/06 12:12:27;;;;;;;1.27;1.10;;;-40.00;88.90;;;;;;5133622;27;20567;-73
2022/06/06 12:15:06;;;;;;;3.23;1.47;;;-40.00;89.10;;;;;;5133625;27;20264;-78
2022/06/06 12:17:44;;;;;;;1.70;1.03;;;-40.00;88.90;;;;;;5136582;27;20229;-68
2022/06/06 12:20:30;;;;;;;1.13;1.00;;;-40.00;88.10;;;;;;5137059;27;20180;-69
2022/06/06 12:23:17;;;;;;;1.27;1.27;;;-40.00;86.00;;;;;;5115712;27;20309;-68
2022/06/06 12:26:14;;;;;;;2.97;1.53;;;-40.00;86.90;;;;;;5132417;27;20165;-68
2022/06/06 12:29:11;;;;;;;1.13;0.77;;;-40.00;86.10;;;;;;5137363;27;20253;-81
2022/06/06 12:32:34;;;;;;;3.67;1.07;;;-40.00;83.40;;;;;;5138690;27;20170;-75
2022/06/06 12:35:32;;;;;;;0.77;0.77;;;-40.00;84.00;;;;;;5088674;27;20242;-84
2022/06/06 12:38:26;;;;;;;0.77;0.60;;;-40.00;85.80;;;;;;5135084;27;20193;-71
2022/06/06 12:41:11;;;;;;;0.90;0.90;;;-40.00;86.70;;;;;;5128706;27;20747;-69
2022/06/06 12:43:56;;;;;;;1.73;1.47;;;-40.00;87.40;;;;;;5137062;27;20256;-70
2022/06/06 12:46:53;;;;;;;1.83;0.90;;;-40.00;86.50;;;;;;5132415;27;20276;-80
2022/06/06 12:49:52;;;;;;;2.17;1.97;;;-40.00;84.90;;;;;;5138163;27;20196;-71
2022/06/06 12:52:33;;;;;;;2.13;1.27;;;-40.00;86.50;;;;;;5137253;27;20185;-70
2022/06/06 12:58:08;;;;;;;1.23;1.00;;;-40.00;90.00;;;;;;5137684;27;20188;-71
2022/06/06 13:03:50;;;;;;;2.40;1.20;;;-40.00;90.30;;;;;;5138561;27;20300;-79
2022/06/06 13:06:53;;;;;;;0.93;0.90;;;-40.00;90.40;;;;;;5112402;27;20189;-73
2022/06/06 13:09:50;;;;;;;1.37;1.27;;;-40.00;90.70;;;;;;5134847;27;20290;-73
2022/06/06 13:12:32;;;;;;;0.93;0.77;;;-40.00;85.90;;;;;;5138787;27;20182;-79
2022/06/06 13:15:16;;;;;;;2.47;0.97;;;-40.00;82.90;;;;;;5139523;27;20196;-72
2022/06/06 13:18:00;;;;;;;1.93;0.90;;;-40.00;82.50;;;;;;5138021;27;20172;-70
2022/06/06 13:20:56;;;;;;;0.60;0.60;;;-40.00;81.80;;;;;;5135288;27;20585;-68
2022/06/06 13:24:16;;;;;;;1.53;1.00;;;-40.00;82.10;;;;;;5133228;27;20169;-69
2022/06/06 13:26:41;;;;;;;0.73;0.73;;;-40.00;81.90;;;;;;5134943;27;20169;-70
2022/06/06 13:29:07;;;;;;;2.27;1.27;;;-40.00;82.50;;;;;;5138585;27;20200;-69
2022/06/06 13:31:46;;;;;;;2.97;1.10;;;-40.00;85.50;;;;;;5138835;27;20877;-71
2022/06/06 13:34:12;;;;;;;4.70;1.23;;;-40.00;83.40;;;;;;5138608;27;20587;-70
2022/06/06 13:37:10;;;;;;;1.77;1.00;;;-40.00;83.70;;;;;;5135909;27;20188;-74
2022/06/06 13:39:50;;;;;;;3.27;1.33;;;-40.00;80.50;;;;;;5138201;27;20180;-71
2022/06/06 13:42:40;;;;;;;1.50;0.90;;;-40.00;81.90;;;;;;5138226;27;20172;-76
2022/06/06 13:45:32;;;;;;;1.53;0.70;;;-40.00;82.10;;;;;;5136564;27;20174;-81
2022/06/06 13:48:19;;;;;;;1.20;0.97;;;-40.00;80.40;;;;;;5134977;27;20212;-75
2022/06/06 13:51:20;;;;;;;1.00;0.80;;;-40.00;83.40;;;;;;5136780;27;20208;-68
2022/06/06 13:54:00;;;;;;;1.00;0.90;;;-40.00;82.40;;;;;;5136774;27;20214;-71
2022/06/06 13:56:53;;;;;;;1.67;1.10;;;-40.00;83.80;;;;;;5136452;27;20165;-70
2022/06/06 13:59:22;;;;;;;2.20;1.03;;;-40.00;84.60;;;;;;5135311;27;20230;-73
2022/06/06 14:02:14;;;;;;;0.67;0.60;;;-40.00;85.90;;;;;;5138121;27;20177;-69
2022/06/06 14:04:55;;;;;;;1.47;0.90;;;-40.00;83.90;;;;;;5137533;27;20212;-82
2022/06/06 14:07:39;;;;;;;0.80;0.80;;;-40.00;83.80;;;;;;5135694;27;20507;-67